Time;durP1;ratioP1;P1;durP2;ratioP2;P2;SDS_P1;SDS_P2;PMS_P1;PMS_P2;Temp;Humidity;BMP_temperature;BMP_pressure;BME280_temperature;BME280_humidity;BME280_pressure;Samples;Min_cycle;Max_cycle;Signal;HPM_P1;HPM_P2
2022/03/05 00:00:51;;;;;;;24.75;12.07;;;;;;;5.09;54.80;101938.09;6198851;23;20005;-65
2022/03/05 00:03:17;;;;;;;25.10;12.30;;;;;;;5.09;55.05;101944.25;6198503;23;20037;-66
2022/03/05 00:05:43;;;;;;;23.83;11.93;;;;;;;5.03;56.23;101943.94;6199503;23;20264;-66
2022/03/05 00:08:09;;;;;;;25.05;12.23;;;;;;;4.94;56.14;101928.66;6198805;23;20004;-65
2022/03/05 00:10:35;;;;;;;23.30;12.27;;;;;;;5.01;55.59;101941.25;6200233;23;20378;-66
2022/03/05 00:13:01;;;;;;;27.20;12.60;;;;;;;4.96;56.09;101942.72;6198382;23;20910;-66
2022/03/05 00:15:28;;;;;;;25.42;12.52;;;;;;;4.92;56.73;101937.25;6201004;23;20080;-65
2022/03/05 00:17:54;;;;;;;26.33;12.43;;;;;;;4.84;56.11;101938.56;6200588;23;20135;-66
2022/03/05 00:20:20;;;;;;;25.40;13.38;;;;;;;4.75;56.92;101941.63;6200070;23;20005;-66
2022/03/05 00:22:47;;;;;;;25.23;13.27;;;;;;;4.72;57.65;101938.84;6198627;23;20234;-66
2022/03/05 00:25:13;;;;;;;24.73;12.68;;;;;;;4.56;57.47;101939.78;6199482;23;20007;-65
2022/03/05 00:27:40;;;;;;;25.95;12.77;;;;;;;4.42;57.81;101943.38;6198356;23;20004;-66
2022/03/05 00:30:06;;;;;;;24.77;12.23;;;;;;;4.36;57.81;101946.56;6198906;23;20007;-66
2022/03/05 00:32:31;;;;;;;26.67;13.73;;;;;;;4.29;58.72;101946.16;6199726;23;20001;-66
2022/03/05 00:34:57;;;;;;;27.25;13.95;;;;;;;4.22;58.29;101950.16;6200174;23;20375;-66
2022/03/05 00:37:22;;;;;;;28.00;13.85;;;;;;;4.14;58.79;101947.13;6199761;23;20015;-65
2022/03/05 00:39:48;;;;;;;25.85;13.45;;;;;;;4.18;59.78;101950.81;6198756;23;20013;-66
2022/03/05 00:42:14;;;;;;;25.50;13.07;;;;;;;4.21;58.71;101951.88;6200242;23;20008;-66
2022/03/05 00:44:40;;;;;;;30.40;14.60;;;;;;;4.19;59.59;101947.38;6199489;23;20319;-65
2022/03/05 00:47:07;;;;;;;28.95;13.80;;;;;;;4.17;59.60;101951.63;6200221;23;20422;-66
2022/03/05 00:49:33;;;;;;;29.80;14.45;;;;;;;4.23;58.78;101947.59;6199185;23;20063;-66
2022/03/05 00:51:59;;;;;;;32.30;14.38;;;;;;;4.26;58.65;101942.56;6200394;23;20005;-65
2022/03/05 00:54:25;;;;;;;28.60;14.55;;;;;;;4.16;59.15;101942.00;6199650;23;20465;-66
2022/03/05 00:56:50;;;;;;;27.38;13.57;;;;;;;4.06;58.97;101937.94;6199725;23;20001;-65
2022/03/05 00:59:16;;;;;;;29.60;14.85;;;;;;;4.04;59.29;101950.06;6196546;23;20148;-66
2022/03/05 01:01:41;;;;;;;29.67;13.93;;;;;;;4.08;58.89;101940.66;6197034;23;20000;-65
2022/03/05 01:04:07;;;;;;;30.65;14.40;;;;;;;4.09;58.75;101938.13;6196474;23;20158;-66
2022/03/05 01:06:32;;;;;;;25.98;13.77;;;;;;;4.10;58.90;101931.19;6199065;23;20447;-66
2022/03/05 01:08:59;;;;;;;31.88;14.15;;;;;;;4.07;59.48;101936.22;6199929;23;20009;-65
2022/03/05 01:11:25;;;;;;;29.17;14.40;;;;;;;4.07;59.09;101937.16;6197839;23;20066;-65
2022/03/05 01:13:51;;;;;;;29.55;14.00;;;;;;;4.04;59.60;101934.38;6199665;23;20005;-66
2022/03/05 01:16:16;;;;;;;29.98;13.50;;;;;;;3.99;58.65;101939.34;6199737;23;20272;-66
2022/03/05 01:18:42;;;;;;;31.48;14.07;;;;;;;4.03;58.84;101929.97;6198428;23;20008;-66
2022/03/05 01:21:08;;;;;;;28.75;14.00;;;;;;;4.08;58.48;101933.72;6198171;23;20087;-66
2022/03/05 01:23:34;;;;;;;30.67;14.07;;;;;;;4.08;58.38;101931.09;6196926;23;20054;-66
2022/03/05 01:25:59;;;;;;;30.27;15.02;;;;;;;4.06;58.95;101934.44;6196096;23;20005;-65
2022/03/05 01:28:25;;;;;;;28.80;14.75;;;;;;;3.97;59.43;101935.72;6196952;23;20005;-66
2022/03/05 01:30:50;;;;;;;34.35;14.45;;;;;;;3.91;59.12;101935.41;6196922;23;20745;-66
2022/03/05 01:33:17;;;;;;;25.30;13.95;;;;;;;3.92;59.34;101934.59;6197686;23;20001;-66
2022/03/05 01:35:45;;;;;;;29.00;14.63;;;;;;;3.94;59.64;101945.13;6197975;23;20020;-66
2022/03/05 01:38:11;;;;;;;26.75;14.75;;;;;;;3.96;59.12;101941.78;6198031;23;20530;-66
2022/03/05 01:40:36;;;;;;;28.60;13.90;;;;;;;3.96;59.25;101941.78;6199417;23;20169;-66
2022/03/05 01:43:02;;;;;;;31.10;14.50;;;;;;;3.89;59.37;101938.75;6198004;23;20525;-66
2022/03/05 01:45:28;;;;;;;30.42;14.52;;;;;;;3.91;59.53;101942.34;6196886;23;20004;-67
2022/03/05 01:47:54;;;;;;;29.80;14.38;;;;;;;3.83;59.20;101935.81;6197909;23;20032;-66
2022/03/05 01:50:20;;;;;;;29.80;13.85;;;;;;;3.81;59.19;101927.84;6199385;23;20009;-65
2022/03/05 01:52:45;;;;;;;29.77;14.65;;;;;;;3.77;59.42;101931.16;6197090;23;20691;-66
2022/03/05 01:55:14;;;;;;;27.88;14.85;;;;;;;3.62;60.13;101940.72;6196427;23;20009;-66
2022/03/05 01:57:39;;;;;;;33.42;15.02;;;;;;;3.50;60.33;101938.31;6196301;23;20012;-66
2022/03/05 02:00:07;;;;;;;27.98;14.70;;;;;;;3.42;60.35;101931.75;6196646;23;20008;-66
2022/03/05 02:02:33;;;;;;;29.95;15.43;;;;;;;3.30;60.81;101934.59;6194868;23;20012;-66
2022/03/05 02:04:58;;;;;;;30.83;15.23;;;;;;;3.38;60.87;101935.00;6196618;23;20061;-66
2022/03/05 02:07:24;;;;;;;34.95;15.40;;;;;;;3.44;60.59;101932.75;6196176;23;20161;-66
2022/03/05 02:09:51;;;;;;;31.63;14.52;;;;;;;3.50;60.33;101936.59;6198798;23;20001;-66
2022/03/05 02:12:17;;;;;;;32.53;15.32;;;;;;;3.54;59.91;101936.78;6199045;23;20015;-66
2022/03/05 02:14:42;;;;;;;34.22;15.25;;;;;;;3.54;59.88;101927.22;6201853;23;20176;-66
2022/03/05 02:17:08;;;;;;;32.80;15.00;;;;;;;3.56;59.92;101930.84;6200550;23;20018;-66
2022/03/05 02:19:33;;;;;;;31.77;15.23;;;;;;;3.59;59.71;101944.06;6198928;23;20000;-66
2022/03/05 02:21:59;;;;;;;29.38;15.13;;;;;;;3.51;59.70;101938.41;6197033;23;20259;-65
2022/03/05 02:24:33;;;;;;;29.42;16.05;;;;;;;3.51;59.85;101938.41;6195438;23;20015;-66
2022/03/05 02:27:03;;;;;;;30.15;15.35;;;;;;;3.61;59.42;101929.38;6196803;23;20004;-65
2022/03/05 02:29:31;;;;;;;34.05;15.32;;;;;;;3.59;59.33;101923.16;6196218;23;20005;-65
2022/03/05 02:31:56;;;;;;;29.40;15.20;;;;;;;3.57;59.73;101930.03;6196882;23;20020;-65
2022/03/05 02:34:22;;;;;;;28.85;14.50;;;;;;;3.46;60.11;101921.56;6196658;23;20184;-66
2022/03/05 02:36:48;;;;;;;29.20;14.80;;;;;;;3.45;60.12;101931.94;6194365;23;20004;-65
2022/03/05 02:39:14;;;;;;;34.33;15.32;;;;;;;3.43;60.20;101928.34;6195758;23;20088;-66
2022/03/05 02:41:39;;;;;;;30.95;15.63;;;;;;;3.42;60.27;101921.28;6194294;23;20044;-66
2022/03/05 02:44:05;;;;;;;33.13;15.45;;;;;;;3.48;60.34;101926.88;6196363;23;20009;-65
2022/03/05 02:46:33;;;;;;;33.45;15.15;;;;;;;3.50;60.16;101922.63;6194160;23;20036;-66
2022/03/05 02:48:59;;;;;;;30.73;15.20;;;;;;;3.54;60.18;101911.53;6193075;23;20009;-65
2022/03/05 02:51:24;;;;;;;35.15;15.68;;;;;;;3.57;59.65;101916.06;6196679;23;20074;-65
2022/03/05 02:53:50;;;;;;;35.97;16.33;;;;;;;3.54;60.23;101919.38;6194616;23;20309;-65
2022/03/05 02:56:15;;;;;;;35.45;16.00;;;;;;;3.50;59.94;101910.47;6196229;23;20403;-65
2022/03/05 02:58:41;;;;;;;30.40;14.70;;;;;;;3.46;59.90;101908.50;6194025;23;20087;-67
2022/03/05 03:01:06;;;;;;;30.30;14.27;;;;;;;3.42;60.16;101914.34;6195369;23;20009;-67
2022/03/05 03:03:32;;;;;;;32.05;15.32;;;;;;;3.35;60.51;101909.63;6197152;23;20119;-66
2022/03/05 03:05:57;;;;;;;33.63;15.00;;;;;;;3.33;60.63;101906.00;6196050;23;20011;-66
2022/03/05 03:08:23;;;;;;;31.55;15.52;;;;;;;3.32;60.33;101908.53;6196110;23;20001;-65
2022/03/05 03:10:48;;;;;;;37.67;16.50;;;;;;;3.25;60.90;101910.81;6196110;23;20016;-66
2022/03/05 03:13:19;;;;;;;32.85;15.95;;;;;;;3.18;60.73;101907.75;6195918;23;20538;-65
2022/03/05 03:15:45;;;;;;;33.33;14.98;;;;;;;3.15;61.03;101908.47;6195439;23;20012;-66
2022/03/05 03:18:10;;;;;;;31.05;15.50;;;;;;;3.07;60.44;101909.72;6192590;23;20183;-66
2022/03/05 03:20:35;;;;;;;31.67;15.00;;;;;;;2.92;61.38;101912.38;6197402;23;20008;-67
2022/03/05 03:23:01;;;;;;;35.28;15.77;;;;;;;2.90;61.36;101913.97;6205927;23;20578;-66
2022/03/05 03:25:26;;;;;;;29.85;14.63;;;;;;;2.92;60.95;101908.84;6198661;23;20084;-66
2022/03/05 03:27:52;;;;;;;34.17;15.40;;;;;;;2.92;60.94;101912.38;6197934;23;20009;-66
2022/03/05 03:30:19;;;;;;;32.08;15.60;;;;;;;2.99;60.74;101904.06;6198199;23;20078;-66
2022/03/05 03:32:45;;;;;;;31.60;15.52;;;;;;;3.09;60.31;101904.63;6196997;23;20000;-66
2022/03/05 03:35:13;;;;;;;30.55;14.48;;;;;;;3.15;60.05;101900.63;6196917;23;20000;-65
2022/03/05 03:37:40;;;;;;;32.97;15.38;;;;;;;3.11;60.37;101906.50;6197817;23;20066;-66
2022/03/05 03:40:09;;;;;;;34.17;15.82;;;;;;;2.97;60.65;101904.81;6197018;23;20094;-65
2022/03/05 03:42:35;;;;;;;30.80;15.57;;;;;;;2.93;60.90;101911.53;6198311;22;20039;-65
2022/03/05 03:45:02;;;;;;;32.10;16.10;;;;;;;2.86;60.71;101903.25;6199534;23;20442;-65
2022/03/05 03:47:27;;;;;;;32.35;15.52;;;;;;;2.94;60.48;101913.34;6199821;23;20012;-65
2022/03/05 03:49:52;;;;;;;33.28;15.38;;;;;;;2.91;60.61;101910.56;6199016;23;20434;-66
2022/03/05 03:52:19;;;;;;;35.63;15.40;;;;;;;2.81;60.69;101908.22;6199765;23;20473;-65
2022/03/05 03:54:47;;;;;;;31.73;15.05;;;;;;;2.77;60.71;101906.22;6197840;23;20007;-65
2022/03/05 03:57:12;;;;;;;35.22;16.17;;;;;;;2.75;60.20;101906.16;6196652;23;20028;-66
2022/03/05 03:59:38;;;;;;;57.35;22.23;;;;;;;2.66;61.37;101913.44;6197408;23;20008;-65
2022/03/05 04:02:04;;;;;;;58.35;23.42;;;;;;;2.55;61.31;101911.88;6198124;23;20005;-65
2022/03/05 04:04:30;;;;;;;48.30;19.08;;;;;;;2.53;61.38;101918.72;6199262;23;20065;-65
2022/03/05 04:09:40;;;;;;;35.30;16.83;;;;;;;2.32;61.66;101905.28;6199348;23;20016;-66
2022/03/05 04:12:06;;;;;;;51.35;19.10;;;;;;;2.31;62.10;101919.09;6198513;23;20004;-65
2022/03/05 04:14:31;;;;;;;42.38;18.10;;;;;;;2.20;62.34;101921.06;6198171;23;20327;-65
2022/03/05 04:16:57;;;;;;;43.30;17.60;;;;;;;2.21;63.14;101919.38;6198848;23;20001;-65
2022/03/05 04:19:26;;;;;;;34.22;15.63;;;;;;;2.21;62.31;101921.97;6197871;23;20000;-66
2022/03/05 04:21:51;;;;;;;36.40;15.90;;;;;;;2.19;62.58;101916.66;6199174;23;20008;-65
2022/03/05 04:24:17;;;;;;;35.75;16.05;;;;;;;2.34;62.35;101919.31;6199444;23;20191;-65
2022/03/05 04:26:42;;;;;;;30.45;15.38;;;;;;;2.46;61.69;101921.75;6199180;23;20243;-65
2022/03/05 04:29:08;;;;;;;36.63;16.08;;;;;;;2.54;61.54;101912.69;6197241;23;20276;-65
2022/03/05 04:31:33;;;;;;;32.20;15.20;;;;;;;2.62;61.55;101913.16;6197130;23;20656;-65
2022/03/05 04:33:59;;;;;;;29.98;14.05;;;;;;;2.62;61.32;101921.00;6197513;23;20008;-66
2022/03/05 04:36:24;;;;;;;30.20;14.43;;;;;;;2.59;60.98;101913.88;6197654;23;20004;-66
2022/03/05 04:38:50;;;;;;;30.80;14.70;;;;;;;2.59;60.97;101921.69;6197622;23;20166;-66
2022/03/05 04:41:15;;;;;;;33.15;14.63;;;;;;;2.51;61.43;101926.44;6196706;23;20325;-65
2022/03/05 04:43:41;;;;;;;37.97;15.70;;;;;;;2.39;61.66;101928.31;6198742;23;20152;-65
2022/03/05 04:46:06;;;;;;;31.58;14.90;;;;;;;2.31;61.75;101933.84;6198079;23;20001;-65
2022/03/05 04:48:32;;;;;;;39.47;17.35;;;;;;;2.28;61.73;101937.19;6196777;23;20014;-65
2022/03/05 04:50:57;;;;;;;38.38;16.88;;;;;;;2.26;61.91;101941.41;6195541;23;20004;-65
2022/03/05 04:53:23;;;;;;;33.88;15.15;;;;;;;2.27;61.81;101938.00;6197311;23;20416;-66
2022/03/05 04:55:49;;;;;;;33.90;15.63;;;;;;;2.20;62.34;101941.94;6194958;23;20370;-65
2022/03/05 04:58:16;;;;;;;35.00;15.80;;;;;;;2.10;63.11;101931.75;6194429;23;20065;-66
2022/03/05 05:00:41;;;;;;;34.83;17.10;;;;;;;1.94;62.85;101932.50;6192339;23;20024;-66
2022/03/05 05:03:07;;;;;;;34.70;15.63;;;;;;;1.87;63.40;101930.28;6193468;23;20331;-65
2022/03/05 05:05:32;;;;;;;35.58;15.90;;;;;;;1.86;64.11;101938.91;6194540;23;20009;-65
2022/03/05 05:07:59;;;;;;;38.97;16.40;;;;;;;1.80;63.30;101941.16;6193113;23;20016;-66
2022/03/05 05:10:25;;;;;;;31.23;15.18;;;;;;;1.80;63.33;101940.22;6194428;23;20009;-66
2022/03/05 05:12:50;;;;;;;34.03;15.07;;;;;;;1.83;63.82;101949.13;6194131;23;20206;-65
2022/03/05 05:15:16;;;;;;;34.35;15.98;;;;;;;1.92;63.65;101936.69;6194869;23;20087;-66
2022/03/05 05:17:42;;;;;;;34.15;15.60;;;;;;;1.97;63.65;101943.13;6193462;23;20070;-66
2022/03/05 05:20:08;;;;;;;34.80;16.10;;;;;;;1.99;63.49;101938.88;6193431;23;20004;-66
2022/03/05 05:22:35;;;;;;;37.47;15.77;;;;;;;1.91;63.75;101934.88;6195145;23;20579;-65
2022/03/05 05:25:01;;;;;;;33.80;15.35;;;;;;;1.91;63.54;101945.31;6194445;23;20252;-65
2022/03/05 05:27:28;;;;;;;33.90;15.73;;;;;;;1.80;64.55;101946.38;6193067;23;20004;-66
2022/03/05 05:29:53;;;;;;;33.17;15.50;;;;;;;1.73;64.61;101944.16;6194254;23;20001;-65
2022/03/05 05:32:19;;;;;;;35.45;16.48;;;;;;;1.71;64.37;101948.34;6195437;23;20011;-66
2022/03/05 05:34:45;;;;;;;36.17;15.82;;;;;;;1.71;65.02;101950.97;6195708;23;20007;-65
2022/03/05 05:37:10;;;;;;;34.85;15.55;;;;;;;1.67;64.85;101951.56;6196919;23;20004;-65
2022/03/05 05:39:36;;;;;;;35.35;16.20;;;;;;;1.63;65.24;101957.41;6196619;23;20374;-65
2022/03/05 05:42:03;;;;;;;36.63;16.10;;;;;;;1.54;65.59;101962.00;6194699;23;20331;-65
2022/03/05 05:44:28;;;;;;;33.00;14.88;;;;;;;1.49;65.50;101962.59;6194823;23;20418;-67
2022/03/05 05:46:54;;;;;;;37.72;16.48;;;;;;;1.50;65.68;101966.13;6196194;23;20004;-66
2022/03/05 05:49:19;;;;;;;39.67;15.95;;;;;;;1.50;66.15;101967.03;6195759;23;20004;-66
2022/03/05 05:51:45;;;;;;;39.00;15.88;;;;;;;1.55;66.28;101969.94;6196071;23;20451;-65
2022/03/05 05:54:11;;;;;;;37.75;16.10;;;;;;;1.55;66.07;101969.94;6196225;23;20032;-66
2022/03/05 05:56:36;;;;;;;35.15;15.40;;;;;;;1.57;65.74;101963.09;6197151;23;20431;-66
2022/03/05 05:59:04;;;;;;;35.13;15.55;;;;;;;1.62;65.58;101973.81;6197092;23;20005;-65
2022/03/05 06:01:29;;;;;;;38.13;15.73;;;;;;;1.56;65.61;101968.22;6195445;23;20055;-65
2022/03/05 06:03:55;;;;;;;34.05;15.27;;;;;;;1.53;65.73;101968.91;6196397;23;20001;-65
2022/03/05 06:06:21;;;;;;;35.58;15.57;;;;;;;1.52;65.40;101971.44;6195179;23;20255;-66
2022/03/05 06:08:47;;;;;;;37.33;15.88;;;;;;;1.49;65.99;101970.41;6197369;23;20082;-65
2022/03/05 06:11:13;;;;;;;39.33;16.45;;;;;;;1.46;65.06;101956.31;6195397;23;20055;-65
2022/03/05 06:13:38;;;;;;;36.17;15.85;;;;;;;1.57;65.29;101962.22;6195324;23;20016;-66
2022/03/05 06:16:05;;;;;;;36.35;15.38;;;;;;;1.63;65.20;101958.31;6194871;23;20375;-66
2022/03/05 06:18:30;;;;;;;38.00;15.65;;;;;;;1.67;65.07;101956.78;6197991;23;20008;-66
2022/03/05 06:20:56;;;;;;;35.65;15.70;;;;;;;1.70;64.99;101965.69;6198707;23;20000;-65
2022/03/05 06:23:23;;;;;;;39.90;15.57;;;;;;;1.73;65.84;101965.91;6196907;23;20001;-65
2022/03/05 06:25:49;;;;;;;37.03;15.45;;;;;;;1.77;64.55;101967.00;6196347;23;20099;-66
2022/03/05 06:28:15;;;;;;;36.97;16.08;;;;;;;1.81;64.85;101968.09;6196116;23;20088;-65
2022/03/05 06:30:40;;;;;;;39.00;16.33;;;;;;;1.82;64.30;101973.41;6196430;23;20082;-66
2022/03/05 06:33:06;;;;;;;34.60;15.43;;;;;;;1.80;64.76;101975.03;6195904;23;20062;-65
2022/03/05 06:35:31;;;;;;;39.67;16.52;;;;;;;1.88;64.34;101971.19;6196741;23;20045;-66
2022/03/05 06:37:56;;;;;;;39.38;15.40;;;;;;;1.91;64.01;101973.97;6196462;23;20304;-65
2022/03/05 06:40:25;;;;;;;34.92;15.50;;;;;;;1.91;64.44;101973.97;6196944;23;20105;-66
2022/03/05 06:42:51;;;;;;;33.30;14.98;;;;;;;2.00;64.33;101969.34;6194960;23;20013;-66
2022/03/05 06:45:17;;;;;;;38.40;16.08;;;;;;;2.04;64.22;101966.94;6196051;23;20072;-65
2022/03/05 06:47:43;;;;;;;35.65;16.00;;;;;;;2.03;63.69;101972.97;6196123;23;20012;-66
2022/03/05 06:50:11;;;;;;;35.70;15.93;;;;;;;2.07;63.46;101970.66;6195594;23;20080;-65
2022/03/05 06:52:37;;;;;;;36.08;15.43;;;;;;;2.03;64.08;101975.59;6194336;23;20005;-65
2022/03/05 06:55:03;;;;;;;37.03;15.63;;;;;;;2.09;64.44;101975.94;6198027;23;20067;-65
2022/03/05 06:57:29;;;;;;;36.55;17.00;;;;;;;2.30;64.95;101979.00;6198140;23;20100;-65
2022/03/05 06:59:56;;;;;;;37.08;15.93;;;;;;;2.38;64.54;101980.38;6197204;23;20416;-65
2022/03/05 07:02:21;;;;;;;39.03;15.48;;;;;;;2.48;64.04;101981.06;6197990;23;20332;-66
2022/03/05 07:04:48;;;;;;;41.33;16.70;;;;;;;2.63;63.93;101988.00;6198270;23;20008;-65
2022/03/05 07:07:15;;;;;;;37.58;15.68;;;;;;;2.87;62.53;101988.56;6197726;23;20000;-65
2022/03/05 07:09:41;;;;;;;35.85;16.38;;;;;;;3.12;62.51;101991.84;6197259;23;20001;-65
2022/03/05 07:12:07;;;;;;;38.88;16.42;;;;;;;3.34;61.21;101995.72;6198454;23;20008;-67
2022/03/05 07:14:33;;;;;;;35.38;15.90;;;;;;;3.49;61.55;102001.84;6196631;23;20370;-65
2022/03/05 07:16:59;;;;;;;36.38;15.95;;;;;;;3.58;61.04;102002.38;6199767;23;20005;-65
2022/03/05 07:19:25;;;;;;;34.67;16.23;;;;;;;3.70;60.48;102010.91;6198063;23;20152;-65
2022/03/05 07:21:50;;;;;;;37.35;16.40;;;;;;;3.93;60.92;102008.69;6198162;23;20019;-66
2022/03/05 07:24:16;;;;;;;37.70;16.23;;;;;;;4.08;59.04;102006.06;6198241;23;20151;-65
2022/03/05 07:26:42;;;;;;;38.83;16.75;;;;;;;4.20;59.80;102009.34;6196648;23;20015;-65
2022/03/05 07:29:07;;;;;;;38.90;16.77;;;;;;;4.35;59.65;102014.50;6197648;23;20001;-64
2022/03/05 07:31:33;;;;;;;39.88;17.77;;;;;;;4.43;59.24;102008.88;6197456;23;20001;-65
2022/03/05 07:33:59;;;;;;;41.17;17.65;;;;;;;4.51;57.85;102011.91;6197348;23;20312;-64
2022/03/05 07:36:25;;;;;;;34.88;16.15;;;;;;;4.56;57.98;102010.44;6198473;23;20139;-65
2022/03/05 07:38:51;;;;;;;40.17;17.58;;;;;;;4.67;57.38;102000.56;6197917;23;20087;-65
2022/03/05 07:41:17;;;;;;;35.83;16.70;;;;;;;4.75;58.96;102004.44;6198785;23;20289;-65
2022/03/05 07:43:43;;;;;;;43.78;17.30;;;;;;;4.80;57.94;101999.47;6197672;23;20000;-64
2022/03/05 07:46:08;;;;;;;38.67;16.40;;;;;;;4.92;57.03;102006.22;6199063;23;20478;-64
2022/03/05 07:48:34;;;;;;;36.95;16.52;;;;;;;5.02;56.46;102010.25;6198364;23;20008;-64
2022/03/05 07:51:01;;;;;;;39.90;17.27;;;;;;;5.04;56.39;102005.97;6197293;23;20017;-65
2022/03/05 07:53:27;;;;;;;37.60;16.67;;;;;;;5.15;57.64;102003.94;6199207;23;20000;-65
2022/03/05 07:55:53;;;;;;;41.80;17.98;;;;;;;5.26;56.54;102002.72;6201667;23;20500;-66
2022/03/05 07:58:18;;;;;;;42.97;18.10;;;;;;;5.37;55.35;102013.78;6200108;23;20005;-65
2022/03/05 08:00:44;;;;;;;45.58;18.25;;;;;;;5.42;55.62;102004.41;6197330;23;20004;-64
2022/03/05 08:03:10;;;;;;;41.92;18.25;;;;;;;5.44;55.10;102008.03;6198399;23;20058;-65
2022/03/05 08:05:35;;;;;;;40.50;17.55;;;;;;;5.50;54.57;102018.81;6198472;23;20217;-66
2022/03/05 08:08:01;;;;;;;38.88;17.48;;;;;;;5.55;55.47;102013.78;6198910;23;20090;-67
2022/03/05 08:10:26;;;;;;;42.15;18.35;;;;;;;5.57;55.11;102022.63;6197597;23;20028;-65
2022/03/05 08:12:52;;;;;;;41.42;17.95;;;;;;;5.66;54.40;102021.38;6200230;23;20000;-65
2022/03/05 08:15:17;;;;;;;40.53;18.50;;;;;;;5.88;54.94;102039.06;6199589;23;20011;-65
2022/03/05 08:17:56;;;;;;;38.92;17.50;;;;;;;6.21;53.67;102031.03;6197991;23;20204;-65
2022/03/05 08:20:24;;;;;;;41.33;17.30;;;;;;;6.55;54.04;102028.25;6200755;23;20014;-65
2022/03/05 08:22:49;;;;;;;41.55;18.05;;;;;;;6.69;52.14;102034.16;6198906;23;20012;-65
2022/03/05 08:25:15;;;;;;;38.42;17.73;;;;;;;6.85;51.48;102034.03;6199039;23;20255;-65
2022/03/05 08:27:40;;;;;;;38.47;16.98;;;;;;;7.12;52.36;102028.19;6196727;23;20429;-66
2022/03/05 08:30:07;;;;;;;42.22;19.27;;;;;;;7.11;51.46;102034.25;6198578;23;20428;-66
2022/03/05 08:32:32;;;;;;;39.95;17.85;;;;;;;7.13;50.21;102032.63;6197017;23;20008;-66
2022/03/05 08:34:59;;;;;;;39.45;17.45;;;;;;;7.22;50.35;102033.00;6197396;23;20011;-65
2022/03/05 08:37:25;;;;;;;39.92;17.63;;;;;;;7.43;49.56;102031.28;6196962;23;20223;-65
2022/03/05 08:39:51;;;;;;;42.75;18.23;;;;;;;7.63;49.48;102042.66;6197519;23;20000;-66
2022/03/05 08:42:16;;;;;;;44.30;18.10;;;;;;;7.81;49.17;102037.28;6196222;23;20479;-65
2022/03/05 08:44:42;;;;;;;40.58;17.52;;;;;;;8.06;49.24;102035.63;6198427;23;20004;-65
2022/03/05 08:47:07;;;;;;;41.83;18.08;;;;;;;8.04;48.35;102039.09;6198089;23;20009;-66
2022/03/05 08:49:33;;;;;;;40.80;17.98;;;;;;;8.24;48.94;102041.63;6196824;23;20075;-65
2022/03/05 08:51:58;;;;;;;37.08;17.85;;;;;;;8.25;47.68;102035.50;6197551;23;20004;-65
2022/03/05 08:54:25;;;;;;;41.45;17.65;;;;;;;8.38;47.45;102042.19;6197944;23;20209;-65
2022/03/05 08:56:51;;;;;;;42.53;18.23;;;;;;;8.67;48.36;102038.94;6196231;23;20011;-65
2022/03/05 08:59:17;;;;;;;41.53;18.58;;;;;;;8.93;46.30;102034.63;6199271;23;20082;-65
2022/03/05 09:01:43;;;;;;;39.67;18.23;;;;;;;9.10;44.96;102023.78;6198212;23;20004;-65
2022/03/05 09:04:09;;;;;;;45.15;20.65;;;;;;;9.35;45.49;102026.44;6199050;23;20405;-65
2022/03/05 09:06:35;;;;;;;40.17;18.92;;;;;;;9.57;44.72;102024.53;6198814;23;20453;-66
2022/03/05 09:09:06;;;;;;;42.67;18.48;;;;;;;9.95;44.81;102017.88;6198568;23;20702;-65
2022/03/05 09:11:32;;;;;;;42.78;18.50;;;;;;;9.98;44.59;102016.25;6197916;23;20360;-65
2022/03/05 09:13:58;;;;;;;43.85;19.15;;;;;;;10.05;44.33;102019.97;6198419;23;20046;-66
2022/03/05 09:16:23;;;;;;;40.28;18.40;;;;;;;10.03;44.70;102017.28;6196644;23;20142;-66
2022/03/05 09:18:49;;;;;;;44.75;18.40;;;;;;;10.41;44.07;102022.91;6197828;23;20047;-65
2022/03/05 09:21:27;;;;;;;45.95;19.63;;;;;;;10.77;42.43;102022.19;6197629;23;20512;-66
2022/03/05 09:23:52;;;;;;;41.60;18.58;;;;;;;11.00;41.70;102010.50;6197225;23;20032;-66
2022/03/05 09:26:18;;;;;;;40.88;18.65;;;;;;;11.08;41.29;102017.75;6198024;23;20081;-66
2022/03/05 09:28:44;;;;;;;40.28;18.98;;;;;;;11.46;41.18;102027.59;6196237;23;20416;-67
2022/03/05 09:31:10;;;;;;;41.72;18.63;;;;;;;11.65;39.63;102021.06;6198076;23;20552;-66
2022/03/05 09:33:36;;;;;;;40.95;19.38;;;;;;;11.86;38.97;102028.66;6197296;23;20214;-66
2022/03/05 09:36:01;;;;;;;40.60;18.90;;;;;;;12.36;39.22;102007.72;6196436;23;20558;-66
2022/03/05 09:38:26;;;;;;;40.38;19.05;;;;;;;12.63;37.66;102011.81;6195498;23;20151;-66
2022/03/05 09:40:53;;;;;;;41.03;18.70;;;;;;;12.78;36.97;102010.41;6197267;23;20089;-66
2022/03/05 09:43:19;;;;;;;39.58;19.40;;;;;;;13.17;37.77;102006.72;6195034;23;20451;-66
2022/03/05 09:45:45;;;;;;;40.47;19.15;;;;;;;13.35;36.31;102007.97;6196959;23;20490;-66
2022/03/05 09:48:14;;;;;;;41.45;20.23;;;;;;;13.84;35.97;102008.81;6197029;23;20179;-66
2022/03/05 09:50:40;;;;;;;43.95;20.70;;;;;;;14.32;35.10;102011.31;6196659;23;20359;-66
2022/03/05 09:53:05;;;;;;;43.45;21.05;;;;;;;14.46;33.93;102011.47;6196232;23;20011;-66
2022/03/05 09:55:31;;;;;;;38.47;19.27;;;;;;;14.52;33.46;102007.19;6198108;23;20001;-66
2022/03/05 09:57:57;;;;;;;41.30;20.20;;;;;;;14.91;33.93;102012.97;6196091;23;20015;-66
2022/03/05 10:00:23;;;;;;;42.80;20.25;;;;;;;15.16;33.06;102007.06;6198235;23;20155;-66
2022/03/05 10:02:48;;;;;;;39.33;20.45;;;;;;;14.99;32.28;102017.53;6197050;23;20228;-66
2022/03/05 10:05:31;;;;;;;36.10;19.38;;;;;;;15.12;33.83;102020.31;6197812;23;20012;-67
2022/03/05 10:08:10;;;;;;;41.42;21.02;;;;;;;15.63;33.21;102011.03;6195926;23;20063;-67
2022/03/05 10:10:52;;;;;;;39.63;20.17;;;;;;;15.96;32.00;102008.66;6195817;23;20140;-66
2022/03/05 10:13:28;;;;;;;42.42;20.30;;;;;;;15.92;32.22;102017.53;6198126;23;20008;-67
2022/03/05 10:15:56;;;;;;;38.47;19.60;;;;;;;16.24;30.14;102003.53;6194924;23;20087;-67
2022/03/05 10:18:33;;;;;;;40.75;20.77;;;;;;;16.52;31.46;102009.88;6195025;23;20000;-67
2022/03/05 10:21:05;;;;;;;41.75;20.63;;;;;;;16.87;30.12;102006.50;6196585;23;20000;-67
2022/03/05 10:23:39;;;;;;;39.17;20.23;;;;;;;17.00;29.54;102009.25;6194709;23;20004;-67
2022/03/05 10:26:07;;;;;;;42.83;20.60;;;;;;;17.24;28.78;102007.50;6195262;23;20005;-67
2022/03/05 10:28:34;;;;;;;40.40;20.90;;;;;;;17.20;28.35;102003.03;6195297;23;20016;-67
2022/03/05 10:31:10;;;;;;;37.38;20.60;;;;;;;17.24;29.90;102003.03;6193215;23;20009;-67
2022/03/05 10:33:37;;;;;;;37.40;20.20;;;;;;;17.28;28.42;102004.84;6194436;23;20000;-67
2022/03/05 10:36:16;;;;;;;37.13;20.38;;;;;;;17.53;27.89;102002.19;6196061;23;20123;-67
2022/03/05 10:39:02;;;;;;;36.00;19.65;;;;;;;17.81;29.67;102010.25;6196122;23;20066;-67
2022/03/05 10:41:38;;;;;;;39.13;20.05;;;;;;;17.90;28.05;102000.44;6194893;23;20447;-67
2022/03/05 10:44:15;;;;;;;33.25;19.52;;;;;;;17.99;28.43;102010.25;6195995;23;20259;-67
2022/03/05 10:46:41;;;;;;;36.17;19.63;;;;;;;17.60;26.81;101997.72;6196916;23;20067;-67
2022/03/05 10:49:21;;;;;;;39.33;20.63;;;;;;;17.59;27.92;102002.19;6195247;23;20008;-67
2022/03/05 10:51:52;;;;;;;37.20;20.58;;;;;;;18.10;27.75;101996.84;6197902;23;20272;-67
2022/03/05 10:54:27;;;;;;;38.78;20.77;;;;;;;18.41;27.48;102000.31;6197189;23;20001;-67
2022/03/05 10:56:57;;;;;;;35.67;20.17;;;;;;;18.66;26.54;102009.16;6196922;23;20080;-67
2022/03/05 10:59:23;;;;;;;37.03;20.17;;;;;;;18.45;25.60;102008.31;6196862;23;20243;-67
2022/03/05 11:01:50;;;;;;;36.97;20.90;;;;;;;18.02;25.55;102007.53;6197491;23;20008;-67
2022/03/05 11:04:16;;;;;;;37.92;20.13;;;;;;;17.60;25.84;102001.31;6195882;23;20580;-67
2022/03/05 11:06:43;;;;;;;37.42;21.20;;;;;;;17.78;26.18;102005.81;6198609;23;20001;-67
2022/03/05 11:09:11;;;;;;;36.67;20.73;;;;;;;17.99;26.59;102003.09;6197319;23;20011;-67
2022/03/05 11:11:40;;;;;;;36.38;20.55;;;;;;;17.92;26.09;102005.78;6196684;23;20004;-67
2022/03/05 11:14:10;;;;;;;41.05;22.15;;;;;;;18.35;27.35;102001.22;6196661;23;20015;-68
2022/03/05 11:16:36;;;;;;;42.03;22.40;;;;;;;18.37;26.99;101996.78;6196632;23;20020;-67